createdAt,value
2018-05-07T00:00:10.080Z,19.5
2018-05-07T00:01:00.235Z,19.6
2018-05-07T00:01:49.863Z,19.6
2018-05-07T00:02:40.258Z,19.5
2018-05-07T00:03:29.846Z,19.5
2018-05-07T00:04:19.847Z,19.5
2018-05-07T00:05:10.185Z,19.5
2018-05-07T00:06:02.907Z,19.6
2018-05-07T00:06:50.852Z,19.5
2018-05-07T00:07:40.727Z,19.5
2018-05-07T00:08:29.269Z,19.5
2018-05-07T00:09:20.642Z,19.5
2018-05-07T00:10:10.659Z,19.5
2018-05-07T00:11:01.219Z,19.5
2018-05-07T00:11:51.855Z,19.5
2018-05-07T00:12:40.840Z,19.5
2018-05-07T00:13:30.541Z,19.5
2018-05-07T00:14:20.684Z,19.5
2018-05-07T00:15:11.210Z,19.5
2018-05-07T00:16:00.803Z,19.5
2018-05-07T00:16:50.732Z,19.5
2018-05-07T00:17:40.823Z,19.5
2018-05-07T00:18:31.552Z,19.5
2018-05-07T00:19:20.673Z,19.5
2018-05-07T00:20:11.009Z,19.5
2018-05-07T00:21:00.755Z,19.5
2018-05-07T00:21:50.849Z,19.5
2018-05-07T00:22:41.094Z,19.5
2018-05-07T00:23:32.158Z,19.5
2018-05-07T00:24:21.349Z,19.5
2018-05-07T00:25:10.576Z,19.5
2018-05-07T00:26:01.211Z,19.5
2018-05-07T00:26:51.151Z,19.5
2018-05-07T00:27:42.004Z,19.5
2018-05-07T00:28:32.661Z,19.5
2018-05-07T00:29:22.273Z,19.5
2018-05-07T00:30:11.272Z,19.5
2018-05-07T00:31:02.236Z,19.5
2018-05-07T00:31:51.746Z,19.5
2018-05-07T00:32:42.618Z,19.5
2018-05-07T00:33:31.778Z,19.5
2018-05-07T00:34:21.648Z,19.5
2018-05-07T00:35:12.968Z,19.5
2018-05-07T00:36:03.058Z,19.5
2018-05-07T00:36:51.498Z,19.5
2018-05-07T00:37:43.198Z,19.5
2018-05-07T00:38:32.534Z,19.5
2018-05-07T00:39:22.781Z,19.5
2018-05-07T00:40:12.637Z,19.5
2018-05-07T00:41:02.633Z,19.5
2018-05-07T00:41:52.421Z,19.5
2018-05-07T00:42:43.080Z,19.5
2018-05-07T00:43:32.318Z,19.5
2018-05-07T00:44:23.223Z,19.5
2018-05-07T00:45:13.241Z,19.5
2018-05-07T00:46:02.740Z,19.5
2018-05-07T00:46:53.952Z,19.5
2018-05-07T00:47:43.690Z,19.5
2018-05-07T00:48:33.443Z,19.5
2018-05-07T00:49:23.754Z,19.5
2018-05-07T00:50:13.854Z,19.5
2018-05-07T00:51:03.966Z,19.5
2018-05-07T00:51:53.718Z,19.5
2018-05-07T00:52:44.328Z,19.5
2018-05-07T00:53:34.481Z,19.5
2018-05-07T00:54:24.168Z,19.5
2018-05-07T00:55:13.434Z,19.4
2018-05-07T00:56:03.776Z,19.5
2018-05-07T00:56:54.127Z,19.4
2018-05-07T00:57:44.477Z,19.5
2018-05-07T00:58:34.242Z,19.5
2018-05-07T00:59:24.039Z,19.4
2018-05-07T01:00:13.782Z,19.5
2018-05-07T01:01:04.207Z,19.5
2018-05-07T01:01:54.042Z,19.4
2018-05-07T01:02:45.201Z,19.5
2018-05-07T01:03:34.924Z,19.5
2018-05-07T01:04:25.024Z,19.4
2018-05-07T01:05:14.475Z,19.4
2018-05-07T01:06:04.828Z,19.5
2018-05-07T01:06:54.381Z,19.4
2018-05-07T01:07:44.931Z,19.5
2018-05-07T01:08:35.328Z,19.4
2018-05-07T01:09:25.409Z,19.4
2018-05-07T01:10:14.592Z,19.4
2018-05-07T01:11:04.944Z,19.4
2018-05-07T01:11:55.016Z,19.5
2018-05-07T01:12:46.639Z,19.4
2018-05-07T01:13:35.111Z,19.4
2018-05-07T01:14:25.209Z,19.4
2018-05-07T01:15:15.565Z,19.4
2018-05-07T01:16:06.111Z,19.4
2018-05-07T01:16:56.000Z,19.4
2018-05-07T01:17:45.462Z,19.5
2018-05-07T01:18:35.755Z,19.5
2018-05-07T01:19:25.844Z,19.4
2018-05-07T01:20:15.609Z,19.4
2018-05-07T01:21:06.500Z,19.4
2018-05-07T01:21:56.088Z,19.4
2018-05-07T01:22:46.624Z,19.4
2018-05-07T01:23:36.698Z,19.4
2018-05-07T01:24:26.062Z,19.4
2018-05-07T01:25:16.601Z,19.4
2018-05-07T01:26:06.398Z,19.4
2018-05-07T01:26:55.967Z,19.4
2018-05-07T01:27:46.583Z,19.4
2018-05-07T01:28:35.728Z,19.4
2018-05-07T01:29:26.384Z,19.4
2018-05-07T01:30:16.448Z,19.4
2018-05-07T01:31:05.608Z,19.4
2018-05-07T01:31:56.293Z,19.4
2018-05-07T01:32:47.180Z,19.4
2018-05-07T01:33:36.434Z,19.4
2018-05-07T01:34:26.751Z,19.4
2018-05-07T01:35:16.827Z,19.4
2018-05-07T01:36:07.460Z,19.4
2018-05-07T01:36:56.959Z,19.4
2018-05-07T01:37:47.267Z,19.4
2018-05-07T01:38:37.667Z,19.4
2018-05-07T01:39:27.591Z,19.4
2018-05-07T01:40:18.018Z,19.4
2018-05-07T01:41:06.971Z,19.4
2018-05-07T01:41:57.867Z,19.4
2018-05-07T01:42:48.230Z,19.4
2018-05-07T01:43:37.741Z,19.4
2018-05-07T01:44:27.583Z,19.4
2018-05-07T01:45:17.912Z,19.4
2018-05-07T01:46:07.888Z,19.4
2018-05-07T01:46:58.240Z,19.4
2018-05-07T01:47:48.018Z,19.4
2018-05-07T01:48:38.500Z,19.4
2018-05-07T01:49:28.165Z,19.4
2018-05-07T01:50:18.578Z,19.4
2018-05-07T01:51:08.946Z,19.4
2018-05-07T01:51:58.694Z,19.4
2018-05-07T01:52:48.964Z,19.4
2018-05-07T01:53:38.515Z,19.4
2018-05-07T01:54:29.230Z,19.4
2018-05-07T01:55:18.415Z,19.4
2018-05-07T01:56:08.667Z,19.4
2018-05-07T01:56:59.069Z,19.4
2018-05-07T01:57:48.904Z,19.4
2018-05-07T01:58:38.588Z,19.4
2018-05-07T01:59:29.291Z,19.4
2018-05-07T02:00:19.005Z,19.4
2018-05-07T02:01:09.338Z,19.4
2018-05-07T02:01:59.150Z,19.4
2018-05-07T02:02:48.947Z,19.4
2018-05-07T02:03:39.022Z,19.4
2018-05-07T02:04:29.350Z,19.4
2018-05-07T07:27:07.725Z,19.4
2018-05-07T07:27:57.909Z,19.3
2018-05-07T07:28:48.131Z,19.4
2018-05-07T07:29:38.202Z,19.4
2018-05-07T07:30:28.242Z,19.3
2018-05-07T07:31:18.118Z,19.4
2018-05-07T07:32:08.094Z,19.3
2018-05-07T07:32:58.197Z,19.4
2018-05-07T07:33:48.784Z,19.4
2018-05-07T07:34:37.736Z,19.4
2018-05-07T07:35:28.881Z,19.3
2018-05-07T07:36:18.433Z,19.3
2018-05-07T07:37:08.799Z,19.4
2018-05-07T07:37:58.799Z,19.4
2018-05-07T07:38:47.902Z,19.4
2018-05-07T07:39:39.539Z,19.3
2018-05-07T07:40:29.055Z,19.3
2018-05-07T07:41:16.871Z,19.4
2018-05-07T07:42:08.111Z,19.4
2018-05-07T07:42:58.416Z,19.4
2018-05-07T07:43:47.924Z,19.4
2018-05-07T07:44:39.412Z,19.3
2018-05-07T07:45:28.068Z,19.3
2018-05-07T07:46:19.449Z,19.3
2018-05-07T07:47:11.497Z,19.3
2018-05-07T07:47:59.351Z,19.3
2018-05-07T07:48:49.132Z,19.3
2018-05-07T07:49:39.795Z,19.3
2018-05-07T07:50:28.716Z,19.4
2018-05-07T07:51:19.336Z,19.3
2018-05-07T07:52:09.334Z,19.3
2018-05-07T07:52:59.465Z,19.3
2018-05-07T07:53:49.918Z,19.4
2018-05-07T07:54:39.604Z,19.4
2018-05-07T07:55:29.103Z,19.3
2018-05-07T07:56:20.345Z,19.3
2018-05-07T07:57:08.667Z,19.3
2018-05-07T07:57:59.854Z,19.4
2018-05-07T07:58:48.515Z,19.3
2018-05-07T07:59:39.721Z,19.3
2018-05-07T08:00:29.478Z,19.3
2018-05-07T08:01:20.164Z,19.3
2018-05-07T08:02:10.413Z,19.4
2018-05-07T08:02:59.606Z,19.4
2018-05-07T08:03:49.488Z,19.3
2018-05-07T08:04:39.581Z,19.3
2018-05-07T08:05:29.790Z,19.3
2018-05-07T08:06:19.785Z,19.3
2018-05-07T08:07:09.811Z,19.3
2018-05-07T08:07:59.283Z,19.3
2018-05-07T08:08:50.208Z,19.3
2018-05-07T08:09:40.795Z,19.3
2018-05-07T08:10:30.885Z,19.3
2018-05-07T08:11:21.002Z,19.3
2018-05-07T08:12:11.453Z,19.4
2018-05-07T08:13:00.898Z,19.3
2018-05-07T08:13:51.173Z,19.3
2018-05-07T08:14:40.021Z,19.3
2018-05-07T08:15:30.884Z,19.3
2018-05-07T08:16:21.578Z,19.3
2018-05-07T08:17:11.690Z,19.3
2018-05-07T08:18:01.990Z,19.3
2018-05-07T08:18:50.901Z,19.3
2018-05-07T08:19:41.791Z,19.3
2018-05-07T08:20:31.899Z,19.3
2018-05-07T08:21:21.457Z,19.3
2018-05-07T08:22:11.767Z,19.3
2018-05-07T08:23:02.155Z,19.3
2018-05-07T08:23:51.675Z,19.3
2018-05-07T08:24:41.971Z,19.3
2018-05-07T08:25:32.257Z,19.3
2018-05-07T08:26:21.774Z,19.3
2018-05-07T08:27:11.831Z,19.3
2018-05-07T08:28:02.494Z,19.3
2018-05-07T08:28:52.561Z,19.3
2018-05-07T08:29:42.329Z,19.3
2018-05-07T08:30:33.873Z,19.3
2018-05-07T08:31:21.878Z,19.3
2018-05-07T08:32:12.224Z,19.3
2018-05-07T08:33:02.653Z,19.3
2018-05-07T08:33:52.380Z,19.3
2018-05-07T08:34:42.792Z,19.3
2018-05-07T08:35:33.057Z,19.3
2018-05-07T08:36:22.903Z,19.3
2018-05-07T08:37:13.135Z,19.3
2018-05-07T08:38:03.916Z,19.4
2018-05-07T08:38:53.591Z,19.4
2018-05-07T08:39:43.720Z,19.3
2018-05-07T08:40:32.571Z,19.3
2018-05-07T08:41:23.504Z,19.4
2018-05-07T08:42:13.512Z,19.4
2018-05-07T08:43:03.958Z,19.4
2018-05-07T08:43:53.996Z,19.4
2018-05-07T08:44:43.495Z,19.4
2018-05-07T08:45:33.563Z,19.4
2018-05-07T08:46:23.593Z,19.4
2018-05-07T08:47:14.028Z,19.4
2018-05-07T08:48:03.743Z,19.4
2018-05-07T08:48:52.983Z,19.4
2018-05-07T08:49:43.668Z,19.4
2018-05-07T08:50:33.993Z,19.4
2018-05-07T08:51:24.520Z,19.4
2018-05-07T08:52:14.331Z,19.4
2018-05-07T08:53:06.063Z,19.4
2018-05-07T08:53:54.463Z,19.4
2018-05-07T08:54:44.811Z,19.4
2018-05-07T08:55:34.882Z,19.4
2018-05-07T08:56:24.397Z,19.4
2018-05-07T08:57:14.529Z,19.4
2018-05-07T08:58:04.266Z,19.4
2018-05-07T08:58:54.589Z,19.4
2018-05-07T08:59:44.746Z,19.4
2018-05-07T09:00:34.143Z,19.4
2018-05-07T09:01:25.416Z,19.4
2018-05-07T09:02:16.248Z,19.4
2018-05-07T09:03:04.486Z,19.4
2018-05-07T09:03:54.515Z,19.4
2018-05-07T09:04:45.375Z,19.4
2018-05-07T09:05:35.137Z,19.4
2018-05-07T09:06:23.184Z,19.4
2018-05-07T09:07:15.254Z,19.4
2018-05-07T09:08:06.660Z,19.4
2018-05-07T09:08:55.368Z,19.4
2018-05-07T09:09:45.972Z,19.4
2018-05-07T09:10:35.818Z,19.4
2018-05-07T09:11:26.223Z,19.4
2018-05-07T09:12:14.800Z,19.4
2018-05-07T09:13:05.180Z,19.4
2018-05-07T09:13:55.254Z,19.4
2018-05-07T09:14:44.626Z,19.4
2018-05-07T09:15:34.342Z,19.4
2018-05-07T09:16:26.062Z,19.4
2018-05-07T09:17:15.785Z,19.4
2018-05-07T09:18:06.667Z,19.4
2018-05-07T09:18:55.614Z,19.4
2018-05-07T09:19:46.520Z,19.4
2018-05-07T09:20:36.064Z,19.4
2018-05-07T09:21:26.636Z,19.4
2018-05-07T09:22:16.146Z,19.4
2018-05-07T09:23:06.196Z,19.4
2018-05-07T09:23:56.776Z,19.4
2018-05-07T09:24:47.437Z,19.4
2018-05-07T09:25:36.142Z,19.4
2018-05-07T09:26:26.322Z,19.4
2018-05-07T09:27:16.939Z,19.4
2018-05-07T09:28:05.772Z,19.4
2018-05-07T09:28:57.621Z,19.4
2018-05-07T09:29:47.615Z,19.4
2018-05-07T09:30:36.534Z,19.4
2018-05-07T09:31:27.646Z,19.4
2018-05-07T09:32:16.723Z,19.4
2018-05-07T09:33:07.605Z,19.4
2018-05-07T09:33:56.824Z,19.4
2018-05-07T09:34:47.414Z,19.4
2018-05-07T09:35:37.723Z,19.4
2018-05-07T09:36:27.518Z,19.4
2018-05-07T09:37:17.910Z,19.4
2018-05-07T09:38:07.123Z,19.4
2018-05-07T09:38:58.297Z,19.4
2018-05-07T09:39:48.363Z,19.4
2018-05-07T09:40:38.436Z,19.4
2018-05-07T09:41:28.567Z,19.4
2018-05-07T09:42:18.015Z,19.4
2018-05-07T09:43:08.812Z,19.4
2018-05-07T09:43:58.395Z,19.4
2018-05-07T09:44:48.217Z,19.4
2018-05-07T09:45:37.994Z,19.4
2018-05-07T09:46:28.596Z,19.4
2018-05-07T09:47:18.120Z,19.4
2018-05-07T09:48:07.905Z,19.4
2018-05-07T09:48:59.306Z,19.4
2018-05-07T09:49:48.932Z,19.4
2018-05-07T09:50:37.815Z,19.4
2018-05-07T09:51:29.024Z,19.4
2018-05-07T09:52:19.115Z,19.4
2018-05-07T09:53:08.851Z,19.4
2018-05-07T09:53:59.167Z,19.4
2018-05-07T09:54:48.971Z,19.4
2018-05-07T09:55:39.372Z,19.4
2018-05-07T09:56:29.661Z,19.4
2018-05-07T09:57:19.715Z,19.4
2018-05-07T09:58:09.541Z,19.4
2018-05-07T09:58:59.106Z,19.4
2018-05-07T09:59:49.966Z,19.4
2018-05-07T10:00:39.226Z,19.4
2018-05-07T10:01:29.774Z,19.4
2018-05-07T10:02:19.855Z,19.4
2018-05-07T10:03:10.204Z,19.4
2018-05-07T10:03:59.995Z,19.4
2018-05-07T10:04:50.051Z,19.4
2018-05-07T10:05:39.875Z,19.4
2018-05-07T10:06:29.999Z,19.4
2018-05-07T10:07:20.506Z,19.4
2018-05-07T10:08:09.722Z,19.4
2018-05-07T10:09:00.107Z,19.4
2018-05-07T10:09:50.427Z,19.4
2018-05-07T10:10:39.941Z,19.4
2018-05-07T10:11:30.012Z,19.4
2018-05-07T10:12:20.933Z,19.4
2018-05-07T10:13:10.410Z,19.4
2018-05-07T10:14:00.513Z,19.4
2018-05-07T10:14:51.071Z,19.4
2018-05-07T10:15:41.224Z,19.4
2018-05-07T10:16:30.961Z,19.4
2018-05-07T10:17:21.054Z,19.4
2018-05-07T10:18:11.083Z,19.4
2018-05-07T10:19:01.445Z,19.4
2018-05-07T10:19:50.747Z,19.4
2018-05-07T10:20:41.309Z,19.4
2018-05-07T10:21:31.390Z,19.4
2018-05-07T10:22:20.862Z,19.4
2018-05-07T10:23:11.301Z,19.4
2018-05-07T10:24:00.600Z,19.4
2018-05-07T10:24:51.129Z,19.4
2018-05-07T10:25:40.894Z,19.4
2018-05-07T10:26:31.511Z,19.4
2018-05-07T10:27:21.081Z,19.4
2018-05-07T10:28:09.721Z,19.4
2018-05-07T10:29:01.553Z,19.4
2018-05-07T10:29:51.681Z,19.4
2018-05-07T10:30:41.860Z,19.4
2018-05-07T10:31:31.066Z,19.4
2018-05-07T10:32:21.748Z,19.4
2018-05-07T10:33:11.761Z,19.4
2018-05-07T10:34:02.616Z,19.4
2018-05-07T10:34:52.419Z,19.4
2018-05-07T10:35:42.207Z,19.4
2018-05-07T10:36:32.080Z,19.4
2018-05-07T10:37:22.581Z,19.4
2018-05-07T10:38:12.651Z,19.4
2018-05-07T10:39:01.582Z,19.4
2018-05-07T10:39:51.934Z,19.4
2018-05-07T10:40:41.547Z,19.4
2018-05-07T10:41:32.342Z,19.4
2018-05-07T10:42:23.261Z,19.4
2018-05-07T10:43:11.079Z,19.4
2018-05-07T10:44:02.391Z,19.4
2018-05-07T10:44:53.200Z,19.4
2018-05-07T10:45:43.526Z,19.4
2018-05-07T10:46:33.643Z,19.4
2018-05-07T10:47:23.142Z,19.4
2018-05-07T10:48:13.444Z,19.4
2018-05-07T10:49:03.928Z,19.4
2018-05-07T10:49:53.364Z,19.4
2018-05-07T10:50:42.824Z,19.4
2018-05-07T10:51:32.898Z,19.4
2018-05-07T10:52:22.974Z,19.4
2018-05-07T10:53:13.308Z,19.4
2018-05-07T10:54:02.813Z,19.4
2018-05-07T10:54:53.412Z,19.4
2018-05-07T10:55:43.472Z,19.4
2018-05-07T10:56:34.188Z,19.4
2018-05-07T10:57:23.125Z,19.4
2018-05-07T10:58:14.336Z,19.4
2018-05-07T10:59:04.021Z,19.4
2018-05-07T10:59:54.211Z,19.4
2018-05-07T11:00:44.110Z,19.4
2018-05-07T11:01:33.353Z,19.4
2018-05-07T11:02:24.300Z,19.4
2018-05-07T11:03:13.775Z,19.4
2018-05-07T11:04:04.415Z,19.4
2018-05-07T11:04:53.999Z,19.4
2018-05-07T11:05:45.329Z,19.4
2018-05-07T11:06:35.152Z,19.4
2018-05-07T11:07:25.870Z,19.4
2018-05-07T11:08:14.491Z,19.4
2018-05-07T11:09:03.677Z,19.4
2018-05-07T11:09:54.591Z,19.4
2018-05-07T11:10:44.896Z,19.4
2018-05-07T11:11:35.275Z,19.4
2018-05-07T11:12:24.908Z,19.4
2018-05-07T11:13:15.112Z,19.4
2018-05-07T11:14:04.922Z,19.4
2018-05-07T11:14:55.345Z,19.4
2018-05-07T11:15:45.034Z,19.4
2018-05-07T11:16:35.486Z,19.4
2018-05-07T11:17:25.813Z,19.4
2018-05-07T11:18:15.886Z,19.4
2018-05-07T11:19:05.885Z,19.4
2018-05-07T11:19:57.025Z,19.4
2018-05-07T11:20:45.164Z,19.4
2018-05-07T11:21:35.782Z,19.4
2018-05-07T11:22:25.602Z,19.4
2018-05-07T11:23:16.201Z,19.4
2018-05-07T11:24:04.890Z,19.4
2018-05-07T11:24:55.823Z,19.4
2018-05-07T11:25:45.904Z,19.4
2018-05-07T11:26:35.960Z,19.4
2018-05-07T11:27:26.237Z,19.4
2018-05-07T11:28:16.063Z,19.4
2018-05-07T11:29:06.434Z,19.4
2018-05-07T11:29:56.201Z,19.4
2018-05-07T11:30:46.234Z,19.4
2018-05-07T11:31:37.169Z,19.4
2018-05-07T11:32:26.572Z,19.4
2018-05-07T11:33:16.933Z,19.4
2018-05-07T11:34:07.116Z,19.4
2018-05-07T11:34:57.196Z,19.4
2018-05-07T11:35:47.151Z,19.4
2018-05-07T11:36:36.373Z,19.4
2018-05-07T11:37:26.713Z,19.4
2018-05-07T11:38:17.373Z,19.4
2018-05-07T11:39:07.673Z,19.4
2018-05-07T11:39:57.527Z,19.4
2018-05-07T11:40:47.560Z,19.4
2018-05-07T11:41:36.805Z,19.4
2018-05-07T11:42:27.427Z,19.4
2018-05-07T11:43:17.482Z,19.4
2018-05-07T11:44:05.827Z,19.4
2018-05-07T11:44:56.840Z,19.4
2018-05-07T11:45:47.517Z,19.4
2018-05-07T11:46:37.467Z,19.4
2018-05-07T11:47:28.588Z,19.4
2018-05-07T11:48:18.106Z,19.4
2018-05-07T11:49:07.397Z,19.4
2018-05-07T11:49:58.025Z,19.4
2018-05-07T11:50:48.611Z,19.4
2018-05-07T11:51:38.385Z,19.4
2018-05-07T11:52:27.647Z,19.4
2018-05-07T11:53:20.655Z,19.4
2018-05-07T11:54:08.015Z,19.4
2018-05-07T11:54:58.091Z,19.5
2018-05-07T11:55:48.471Z,19.5
2018-05-07T11:56:38.288Z,19.5
2018-05-07T11:57:29.147Z,19.6
2018-05-07T11:58:18.634Z,19.6
2018-05-07T11:59:07.744Z,19.6
2018-05-07T11:59:58.778Z,19.6
2018-05-07T12:00:48.621Z,19.6
2018-05-07T12:01:39.221Z,19.6
2018-05-07T12:02:29.853Z,19.6
2018-05-07T12:03:18.547Z,19.6
2018-05-07T12:04:07.520Z,19.6
2018-05-07T12:04:58.378Z,19.6
2018-05-07T12:05:49.446Z,19.6
2018-05-07T12:06:38.746Z,19.6
2018-05-07T12:07:29.165Z,19.6
2018-05-07T12:08:18.896Z,19.6
2018-05-07T12:09:10.786Z,19.6
2018-05-07T12:09:59.313Z,19.6
2018-05-07T12:10:49.061Z,19.6
2018-05-07T12:11:39.470Z,19.6
2018-05-07T12:12:30.333Z,19.6
2018-05-07T12:13:18.977Z,19.6
2018-05-07T12:14:09.646Z,19.6
2018-05-07T12:14:59.390Z,19.6
2018-05-07T12:15:51.663Z,19.6
2018-05-07T12:16:40.673Z,19.7
2018-05-07T12:17:30.202Z,19.7
2018-05-07T12:18:20.790Z,19.7
2018-05-07T12:19:10.045Z,19.7
2018-05-07T12:20:00.587Z,19.7
2018-05-07T12:20:50.721Z,19.7
2018-05-07T12:21:40.994Z,19.7
2018-05-07T12:22:30.252Z,19.7
2018-05-07T12:23:22.576Z,19.7
2018-05-07T12:24:11.258Z,19.7
2018-05-07T12:25:00.659Z,19.7
2018-05-07T12:25:50.811Z,19.7
2018-05-07T12:26:40.286Z,19.7
2018-05-07T12:27:31.447Z,19.7
2018-05-07T12:28:21.035Z,19.8
2018-05-07T12:29:10.752Z,19.8
2018-05-07T12:30:01.092Z,19.8
2018-05-07T12:30:51.434Z,19.8
2018-05-07T12:31:44.525Z,19.8
2018-05-07T12:32:31.283Z,19.8
2018-05-07T12:33:21.080Z,19.8
2018-05-07T12:34:11.747Z,19.8
2018-05-07T12:35:00.937Z,19.8
2018-05-07T12:35:51.626Z,19.8
2018-05-07T12:36:41.636Z,19.8
2018-05-07T12:37:31.956Z,19.8
2018-05-07T12:38:21.197Z,19.8
2018-05-07T12:39:10.971Z,19.8
2018-05-07T12:40:02.470Z,19.8
2018-05-07T12:40:52.487Z,19.8
2018-05-07T12:41:42.551Z,19.8
2018-05-07T12:42:32.643Z,19.8
2018-05-07T12:43:21.871Z,19.8
2018-05-07T12:44:12.471Z,19.8
2018-05-07T12:45:02.052Z,19.8
2018-05-07T12:45:52.344Z,19.8
2018-05-07T12:46:41.616Z,19.8
2018-05-07T12:47:31.935Z,19.8
2018-05-07T12:48:22.799Z,19.8
2018-05-07T12:49:13.224Z,19.8
2018-05-07T12:50:02.469Z,19.8
2018-05-07T12:50:52.221Z,19.8
2018-05-07T12:51:43.100Z,19.8
2018-05-07T12:52:34.033Z,19.8
2018-05-07T12:53:21.576Z,19.9
2018-05-07T12:54:12.102Z,19.9
2018-05-07T12:55:02.619Z,19.9
2018-05-07T12:55:52.017Z,19.9
2018-05-07T12:56:43.234Z,19.9
2018-05-07T12:57:31.756Z,19.9
2018-05-07T12:58:22.934Z,19.9
2018-05-07T12:59:13.691Z,19.9
2018-05-07T13:00:02.989Z,19.9
2018-05-07T13:00:52.440Z,19.9
2018-05-07T13:01:43.151Z,19.9
2018-05-07T13:02:33.701Z,19.9
2018-05-07T13:03:23.761Z,19.9
2018-05-07T13:04:14.461Z,19.9
2018-05-07T13:05:03.564Z,19.9
2018-05-07T13:05:54.787Z,19.9
2018-05-07T13:06:43.976Z,19.9
2018-05-07T13:07:34.596Z,19.9
2018-05-07T13:08:23.913Z,19.9
2018-05-07T13:09:13.648Z,19.9
2018-05-07T13:10:03.713Z,19.9
2018-05-07T13:10:53.202Z,19.9
2018-05-07T13:11:45.153Z,19.9
2018-05-07T13:12:34.182Z,19.9
2018-05-07T13:13:24.297Z,19.9
2018-05-07T13:14:14.932Z,19.9
2018-05-07T13:15:04.934Z,19.9
2018-05-07T13:15:53.318Z,19.9
2018-05-07T13:16:44.196Z,19.9
2018-05-07T13:17:35.371Z,19.9
2018-05-07T13:18:24.832Z,19.9
2018-05-07T13:19:15.597Z,19.9
2018-05-07T13:20:05.040Z,19.9
2018-05-07T13:20:55.711Z,19.9
2018-05-07T13:21:45.449Z,19.9
2018-05-07T13:22:35.766Z,19.9
2018-05-07T13:23:25.916Z,19.9
2018-05-07T13:24:16.116Z,19.9
2018-05-07T13:25:05.614Z,19.9
2018-05-07T13:25:56.091Z,20
2018-05-07T13:26:45.581Z,20
2018-05-07T13:27:35.369Z,20
2018-05-07T13:28:24.929Z,20
2018-05-07T13:29:16.077Z,20
2018-05-07T13:30:05.274Z,20
2018-05-07T13:30:55.679Z,20
2018-05-07T13:31:45.700Z,20.1
2018-05-07T13:32:36.057Z,20
2018-05-07T13:33:26.474Z,20
2018-05-07T13:34:16.203Z,20
2018-05-07T13:35:06.113Z,20
2018-05-07T13:35:56.900Z,20
2018-05-07T13:36:47.196Z,20
2018-05-07T13:37:35.932Z,20
2018-05-07T13:38:26.512Z,20
2018-05-07T13:39:16.853Z,20.1
2018-05-07T13:40:06.627Z,20
2018-05-07T13:40:56.735Z,20.1
2018-05-07T13:41:46.801Z,20.1
2018-05-07T13:42:37.117Z,20.1
2018-05-07T13:43:26.640Z,20.1
2018-05-07T13:44:16.216Z,20.1
2018-05-07T13:45:07.569Z,20.1
2018-05-07T13:45:56.815Z,20.1
2018-05-07T13:46:47.744Z,20.1
2018-05-07T13:47:37.224Z,20.1
2018-05-07T13:48:27.623Z,20.1
2018-05-07T13:49:17.090Z,20.1
2018-05-07T13:50:07.443Z,20.1
2018-05-07T13:50:56.679Z,20.1
2018-05-07T13:51:48.122Z,20.1
2018-05-07T13:52:37.308Z,20.1
2018-05-07T13:53:28.031Z,20.1
2018-05-07T13:54:18.028Z,20.1
2018-05-07T13:55:07.821Z,20.1
2018-05-07T13:55:57.735Z,20.1
2018-05-07T13:56:48.466Z,20.1
2018-05-07T13:57:38.031Z,20.2
2018-05-07T13:58:28.661Z,20.1
2018-05-07T13:59:17.915Z,20.2
2018-05-07T14:00:08.758Z,20.2
2018-05-07T14:00:59.000Z,20.1
2018-05-07T14:01:48.678Z,20.2
2018-05-07T14:02:39.871Z,20.2
2018-05-07T14:03:28.199Z,20.2
2018-05-07T14:04:18.853Z,20.2
2018-05-07T14:05:08.878Z,20.2
2018-05-07T14:05:58.650Z,20.2
2018-05-07T14:06:48.734Z,20.2
2018-05-07T14:07:39.115Z,20.2
2018-05-07T14:08:30.310Z,20.2
2018-05-07T14:09:18.378Z,20.2
2018-05-07T14:10:08.494Z,20.2
2018-05-07T14:10:58.218Z,20.2
2018-05-07T14:11:49.151Z,20.3
2018-05-07T14:12:39.864Z,20.3
2018-05-07T14:13:29.330Z,20.3
2018-05-07T14:14:19.401Z,20.3
2018-05-07T14:15:09.727Z,20.3
2018-05-07T14:15:59.289Z,20.3
2018-05-07T14:16:51.303Z,20.3
2018-05-07T14:17:39.613Z,20.3
2018-05-07T14:18:29.703Z,20.3
2018-05-07T14:19:18.968Z,20.3
2018-05-07T14:20:10.135Z,20.3
2018-05-07T14:21:00.448Z,20.3
2018-05-07T14:21:50.531Z,20.3
2018-05-07T14:22:39.214Z,20.4
2018-05-07T14:23:30.335Z,20.4
2018-05-07T14:24:20.426Z,20.4
2018-05-07T14:25:10.268Z,20.4
2018-05-07T14:26:00.370Z,20.4
2018-05-07T14:26:50.615Z,20.4
2018-05-07T14:27:40.677Z,20.4
2018-05-07T14:28:30.801Z,20.4
2018-05-07T14:29:20.007Z,20.4
2018-05-07T14:30:10.344Z,20.3
2018-05-07T14:31:00.129Z,20.3
2018-05-07T14:31:50.518Z,20.3
2018-05-07T14:32:40.238Z,20.3
2018-05-07T14:33:31.592Z,20.3
2018-05-07T14:34:20.434Z,20.2
2018-05-07T14:35:11.258Z,20.2
2018-05-07T14:36:00.802Z,20.3
2018-05-07T14:36:51.144Z,20.3
2018-05-07T14:37:41.190Z,20.3
2018-05-07T14:38:31.794Z,20.3
2018-05-07T14:39:21.316Z,20.3
2018-05-07T14:40:11.974Z,20.3
2018-05-07T14:41:02.061Z,20.3
2018-05-07T14:41:49.310Z,20.3
2018-05-07T14:42:40.222Z,20.3
2018-05-07T14:43:29.214Z,20.3
2018-05-07T14:44:19.912Z,20.3
2018-05-07T14:45:09.592Z,20.3
2018-05-07T14:46:00.227Z,20.3
2018-05-07T14:46:50.014Z,20.3
2018-05-07T14:47:40.067Z,20.4
2018-05-07T14:48:30.652Z,20.4
2018-05-07T14:49:20.723Z,20.4
2018-05-07T14:50:10.701Z,20.4
2018-05-07T14:51:00.888Z,20.4
2018-05-07T14:51:50.364Z,20.4
2018-05-07T14:52:40.731Z,20.4
2018-05-07T14:53:30.020Z,20.4
2018-05-07T14:54:20.565Z,20.4
2018-05-07T14:55:11.042Z,20.4
2018-05-07T14:56:01.510Z,20.4
2018-05-07T14:56:51.396Z,20.4
2018-05-07T14:57:41.384Z,20.4
2018-05-07T14:58:30.940Z,20.4
2018-05-07T14:59:21.021Z,20.4
2018-05-07T15:00:11.622Z,20.4
2018-05-07T15:01:01.662Z,20.4
2018-05-07T15:01:51.138Z,20.4
2018-05-07T15:02:41.495Z,20.4
2018-05-07T15:03:30.719Z,20.4
2018-05-07T15:04:21.637Z,20.4
2018-05-07T15:05:11.739Z,20.4
2018-05-07T15:06:01.772Z,20.4
2018-05-07T15:06:51.564Z,20.4
2018-05-07T15:07:42.201Z,20.4
2018-05-07T15:08:32.222Z,20.4
2018-05-07T15:09:21.506Z,20.4
2018-05-07T15:10:11.045Z,20.4
2018-05-07T15:11:04.403Z,20.4
2018-05-07T15:11:53.659Z,20.4
2018-05-07T15:12:44.267Z,20.4
2018-05-07T15:13:34.155Z,20.4
2018-05-07T15:14:24.083Z,20.4
2018-05-07T15:15:14.140Z,20.4
2018-05-07T15:16:04.496Z,20.4
2018-05-07T15:16:54.857Z,20.4
2018-05-07T15:17:44.661Z,20.4
2018-05-07T15:18:34.971Z,20.4
2018-05-07T15:19:24.318Z,20.4
2018-05-07T15:20:14.854Z,20.4
2018-05-07T15:21:04.381Z,20.4
2018-05-07T15:21:54.123Z,20.4
2018-05-07T15:22:44.466Z,20.4
2018-05-07T15:23:35.607Z,20.4
2018-05-07T15:24:24.947Z,20.4
2018-05-07T15:25:14.688Z,20.4
2018-05-07T15:26:05.013Z,20.4
2018-05-07T15:26:53.807Z,20.4
2018-05-07T15:27:44.957Z,20.4
2018-05-07T15:28:34.499Z,20.4
2018-05-07T15:29:25.761Z,20.4
2018-05-07T15:30:15.056Z,20.4
2018-05-07T15:31:05.417Z,20.4
2018-05-07T15:31:56.142Z,20.4
2018-05-07T15:32:45.314Z,20.4
2018-05-07T15:33:35.078Z,20.4
2018-05-07T15:34:25.691Z,20.4
2018-05-07T15:35:15.766Z,20.4
2018-05-07T15:36:06.086Z,20.4
2018-05-07T15:36:56.188Z,20.4
2018-05-07T15:37:46.481Z,20.4
2018-05-07T15:38:35.427Z,20.4
2018-05-07T15:39:26.161Z,20.4
2018-05-07T15:40:16.464Z,20.4
2018-05-07T15:41:06.584Z,20.4
2018-05-07T15:41:56.304Z,20.4
2018-05-07T15:42:44.371Z,20.4
2018-05-07T15:43:36.210Z,20.4
2018-05-07T15:44:25.665Z,20.4
2018-05-07T15:45:16.561Z,20.4
2018-05-07T15:46:06.392Z,20.4
2018-05-07T15:46:57.018Z,20.4
2018-05-07T15:47:46.783Z,20.4
2018-05-07T15:48:37.445Z,20.4
2018-05-07T15:49:28.614Z,20.4
2018-05-07T15:50:16.927Z,20.4
2018-05-07T15:51:07.009Z,20.4
2018-05-07T15:51:56.823Z,20.4
2018-05-07T15:52:47.424Z,20.4
2018-05-07T15:53:36.875Z,20.4
2018-05-07T15:54:27.303Z,20.4
2018-05-07T15:55:17.604Z,20.4
2018-05-07T15:56:08.510Z,20.4
2018-05-07T15:56:58.035Z,20.4
2018-05-07T15:57:47.250Z,20.4
2018-05-07T15:58:37.619Z,20.4
2018-05-07T15:59:28.017Z,20.4
2018-05-07T16:00:17.193Z,20.4
2018-05-07T16:01:07.795Z,20.4
2018-05-07T16:01:58.428Z,20.4
2018-05-07T16:02:50.249Z,20.4
2018-05-07T16:03:37.695Z,20.3
2018-05-07T16:04:28.061Z,20.3
2018-05-07T16:05:17.933Z,20.3
2018-05-07T16:06:07.105Z,20.3
2018-05-07T16:06:58.841Z,20.3
2018-05-07T16:07:47.529Z,20.3
2018-05-07T16:08:38.752Z,20.4
2018-05-07T16:09:27.964Z,20.4
2018-05-07T16:10:18.237Z,20.4
2018-05-07T16:11:08.894Z,20.3
2018-05-07T16:11:58.452Z,20.3
2018-05-07T16:12:49.034Z,20.3
2018-05-07T16:13:39.044Z,20.3
2018-05-07T16:14:28.550Z,20.4
2018-05-07T16:15:20.864Z,20.4
2018-05-07T16:16:08.970Z,20.4
2018-05-07T16:16:59.703Z,20.4
2018-05-07T16:17:49.638Z,20.4
2018-05-07T16:18:40.069Z,20.4
2018-05-07T16:19:29.284Z,20.4
2018-05-07T16:20:18.453Z,20.4
2018-05-07T16:21:09.477Z,20.4
2018-05-07T16:22:01.731Z,20.4
2018-05-07T16:22:49.805Z,20.4
2018-05-07T16:23:41.328Z,20.4
2018-05-07T16:24:29.904Z,20.4
2018-05-07T16:25:19.150Z,20.4
2018-05-07T16:26:09.759Z,20.4
2018-05-07T16:27:00.108Z,20.4
2018-05-07T16:27:50.457Z,20.4
2018-05-07T16:28:39.906Z,20.4